Pagrindinis puslapis
METAR-TAF:

METAR-TAF

Oro uostai :

Ušakas, Turkija

platuma: 38-40N, ilguma: 029-25E, Aukštis: 919 m

Dabartinis oras

Ataskaita buvo paskelbta 6 valandos ir 21 minutes, ne 11:50 UTC
Vėjas 17 kt iš Rytų
Temperatūra 25°C
Drėgmė 19%
Slėgis 1019 hPa
Matomumas 10 km arba daugiau
nėra debesų žemiau 1500 m ir nėra kamuolinių lietaus debesų

METAR: LTBO 151150Z 08017KT CAVOK 25/00 Q1019

Laikas: 21:11 (18:11 UTC)

Prognozė

Ataskaita buvo paskelbta 1 valandą ir 31 minutes, ne 16:40 UTC
Prognozė galioja nuo 15 metu 18 UTC su 16 metu 03 UTC
Vėjas 17 kt iš Šiaurės Rytų
Matomumas 10 km arba daugiau
nėra debesų žemiau 1500 m ir nėra kamuolinių lietaus debesų
Tapsmas
nuo 15 metu 22 UTC su 15 metu 24 UTC
Vėjas 2 kt nuo kintamojo kryptimis

TAF: LTBO 151640Z 1518/1603 05017KT CAVOK BECMG 1522/1524 VRB02KT

Orai ataskaitas ir orų prognozės (METAR, TAF).

turimą stotys yra geltonos ir raudonos taškus žemėlapyje.

Perkelti pele per norėdami pamatyti stoties vardą.

Tada spustelėkite, norėdami matyti oro stebėjimo ir prognozės.

Norėdami pakeisti žemėlapį: spustelėkite ant žalios mygtukų su juodo kryžiaus žemyn,; žalią mygtuką su brūkšneliu, jei norite nutolinti; arba žalių rodyklių gretimoms žemėlapius.


METAR-TAF: